createdAt,value
2023-04-15T00:01:34.638Z,8.02
2023-04-15T00:04:01.975Z,8.05
2023-04-15T00:06:29.124Z,8.08
2023-04-15T00:08:55.904Z,8.09
2023-04-15T00:11:24.447Z,8.08
2023-04-15T00:13:51.324Z,8.09
2023-04-15T00:16:18.235Z,8.17
2023-04-15T00:18:45.200Z,8.14
2023-04-15T00:21:12.005Z,8.14
2023-04-15T00:23:38.954Z,8.18
2023-04-15T00:26:05.772Z,8.18
2023-04-15T00:28:32.696Z,8.22
2023-04-15T00:30:59.530Z,8.20
2023-04-15T00:33:26.874Z,8.23
2023-04-15T00:35:53.875Z,8.22
2023-04-15T00:38:20.825Z,8.24
2023-04-15T00:40:47.738Z,8.20
2023-04-15T00:43:14.647Z,8.28
2023-04-15T00:45:41.493Z,8.24
2023-04-15T00:48:10.432Z,8.29
2023-04-15T00:50:37.221Z,8.23
2023-04-15T00:53:04.090Z,8.32
2023-04-15T00:55:31.811Z,8.30
2023-04-15T00:57:59.208Z,8.27
2023-04-15T01:00:26.916Z,8.24
2023-04-15T01:02:53.923Z,8.21
2023-04-15T01:05:20.850Z,8.17
2023-04-15T01:07:48.943Z,8.21
2023-04-15T01:10:15.874Z,8.15
2023-04-15T01:12:43.447Z,8.08
2023-04-15T01:15:11.215Z,8.11
2023-04-15T01:17:39.413Z,8.02
2023-04-15T01:20:10.181Z,7.95
2023-04-15T01:22:38.428Z,7.95
2023-04-15T01:25:13.828Z,7.91
2023-04-15T01:27:42.421Z,7.92
2023-04-15T01:30:10.658Z,7.85
2023-04-15T01:32:37.984Z,7.87
2023-04-15T01:35:05.342Z,7.76
2023-04-15T01:37:32.697Z,7.78
2023-04-15T01:39:59.788Z,7.89
2023-04-15T01:42:26.612Z,7.88
2023-04-15T01:44:53.842Z,7.85
2023-04-15T01:47:20.887Z,7.90
2023-04-15T01:49:48.007Z,7.92
2023-04-15T01:52:14.805Z,7.91
2023-04-15T01:54:41.892Z,7.98
2023-04-15T01:57:08.653Z,7.97
2023-04-15T01:59:36.259Z,7.99
2023-04-15T02:02:03.235Z,7.99
2023-04-15T02:04:30.352Z,8.07
2023-04-15T02:07:00.816Z,8.03
2023-04-15T02:09:28.076Z,8.05
2023-04-15T02:11:54.988Z,8.02
2023-04-15T02:14:22.221Z,8.12
2023-04-15T02:16:49.235Z,8.12
2023-04-15T02:19:16.454Z,8.09
2023-04-15T02:21:43.359Z,8.17
2023-04-15T02:24:10.480Z,8.17
2023-04-15T02:26:37.460Z,8.15
2023-04-15T02:29:04.396Z,8.22
2023-04-15T02:31:34.197Z,8.25
2023-04-15T02:34:03.136Z,8.20
2023-04-15T02:36:32.003Z,8.22
2023-04-15T02:38:59.033Z,8.23
2023-04-15T02:41:28.511Z,8.22
2023-04-15T02:43:55.929Z,8.30
2023-04-15T02:46:23.222Z,8.29
2023-04-15T02:48:51.052Z,8.27
2023-04-15T02:51:20.418Z,8.25
2023-04-15T02:53:48.663Z,8.38
2023-04-15T02:56:16.029Z,8.31
2023-04-15T02:58:45.201Z,8.32
2023-04-15T03:01:12.266Z,8.27
2023-04-15T03:03:40.161Z,8.33
2023-04-15T03:06:07.069Z,8.32
2023-04-15T03:08:34.376Z,8.33
2023-04-15T03:11:02.686Z,8.28
2023-04-15T03:13:29.903Z,8.36
2023-04-15T03:15:58.505Z,8.19
2023-04-15T03:18:25.449Z,8.25
2023-04-15T03:20:52.302Z,8.24
2023-04-15T03:23:19.198Z,8.16
2023-04-15T03:25:46.274Z,8.20
2023-04-15T03:28:14.708Z,8.18
2023-04-15T03:30:41.875Z,8.13
2023-04-15T03:33:09.492Z,8.15
2023-04-15T03:35:36.991Z,8.12
2023-04-15T03:38:03.859Z,8.15
2023-04-15T03:40:30.809Z,8.14
2023-04-15T03:42:57.703Z,8.06
2023-04-15T03:45:24.530Z,8.09
2023-04-15T03:47:51.728Z,8.07
2023-04-15T03:50:18.649Z,8.12
2023-04-15T03:52:45.859Z,8.17
2023-04-15T03:55:12.787Z,8.12
2023-04-15T03:57:39.946Z,8.12
2023-04-15T04:00:08.061Z,8.18
2023-04-15T04:02:38.767Z,8.21
2023-04-15T04:05:06.448Z,8.16
2023-04-15T04:07:33.272Z,8.13
2023-04-15T04:10:00.126Z,8.11
2023-04-15T04:12:27.016Z,8.19
2023-04-15T04:14:53.809Z,8.09
2023-04-15T04:17:20.690Z,8.12
2023-04-15T04:19:47.529Z,8.05
2023-04-15T04:22:14.430Z,8.10
2023-04-15T04:24:41.330Z,8.02
2023-04-15T04:27:08.254Z,8.09
2023-04-15T04:29:35.128Z,7.97
2023-04-15T04:32:02.063Z,8.01
2023-04-15T04:34:28.886Z,7.95
2023-04-15T04:36:55.807Z,8.04
2023-04-15T04:39:22.686Z,8.01
2023-04-15T04:41:50.211Z,7.99
2023-04-15T04:44:17.062Z,7.97
2023-04-15T04:46:43.995Z,7.95
2023-04-15T04:49:10.896Z,8.00
2023-04-15T04:51:37.819Z,8.07
2023-04-15T04:54:04.614Z,8.04
2023-04-15T04:56:31.481Z,7.98
2023-04-15T04:58:58.355Z,8.09
2023-04-15T05:01:26.765Z,8.10
2023-04-15T05:03:53.821Z,8.06
2023-04-15T05:06:20.895Z,8.03
2023-04-15T05:08:48.410Z,8.07
2023-04-15T05:11:15.247Z,8.09
2023-04-15T05:13:42.222Z,8.22
2023-04-15T05:16:09.603Z,8.15
2023-04-15T05:18:36.959Z,8.22
2023-04-15T05:21:03.961Z,8.23
2023-04-15T05:23:31.133Z,8.24
2023-04-15T05:25:58.044Z,8.22
2023-04-15T05:28:24.942Z,8.20
2023-04-15T05:30:51.882Z,8.17
2023-04-15T05:33:19.200Z,8.20
2023-04-15T05:35:46.362Z,8.22
2023-04-15T05:38:13.295Z,8.31
2023-04-15T05:40:40.121Z,8.35
2023-04-15T05:43:07.063Z,8.41
2023-04-15T05:45:33.829Z,8.27
2023-04-15T05:48:00.771Z,8.31
2023-04-15T05:50:27.615Z,8.29
2023-04-15T05:52:54.569Z,8.42
2023-04-15T05:55:22.247Z,8.55
2023-04-15T05:57:49.107Z,8.53
2023-04-15T06:00:16.532Z,8.55
2023-04-15T06:02:43.615Z,8.54
2023-04-15T06:05:11.942Z,8.70
2023-04-15T06:07:38.949Z,8.67
2023-04-15T06:10:06.535Z,8.70
2023-04-15T06:12:33.517Z,8.68
2023-04-15T06:15:00.586Z,8.79
2023-04-15T06:17:27.595Z,8.67
2023-04-15T06:19:55.898Z,8.73
2023-04-15T06:22:23.591Z,8.65
2023-04-15T06:24:51.623Z,8.72
2023-04-15T06:27:18.887Z,8.72
2023-04-15T06:29:45.719Z,8.75
2023-04-15T06:32:13.239Z,8.87
2023-04-15T06:34:40.101Z,8.87
2023-04-15T06:37:07.181Z,8.93
2023-04-15T06:39:34.018Z,8.88
2023-04-15T06:42:01.750Z,8.89
2023-04-15T06:44:30.092Z,8.95
2023-04-15T06:46:58.089Z,9.03
2023-04-15T06:49:24.882Z,9.03
2023-04-15T06:51:51.763Z,9.02
2023-04-15T06:54:18.908Z,9.13
2023-04-15T06:56:45.812Z,9.13
2023-04-15T06:59:13.064Z,9.14
2023-04-15T07:01:42.063Z,9.20
2023-04-15T07:04:09.007Z,9.22
2023-04-15T07:06:35.864Z,9.33
2023-04-15T07:09:03.679Z,9.39
2023-04-15T07:11:31.071Z,9.35
2023-04-15T07:13:58.698Z,9.41
2023-04-15T07:16:27.878Z,9.40
2023-04-15T07:18:56.240Z,9.33
2023-04-15T07:21:24.063Z,9.39
2023-04-15T07:23:51.150Z,9.59
2023-04-15T07:26:18.104Z,9.64
2023-04-15T07:28:46.411Z,9.65
2023-04-15T07:31:13.980Z,9.58
2023-04-15T07:33:40.758Z,9.88
2023-04-15T07:36:08.011Z,9.77
2023-04-15T07:38:34.949Z,9.74
2023-04-15T07:41:01.756Z,9.88
2023-04-15T07:43:29.884Z,9.91
2023-04-15T07:45:56.709Z,9.93
2023-04-15T07:48:23.554Z,9.99
2023-04-15T07:50:50.411Z,9.99
2023-04-15T07:53:17.283Z,10.04
2023-04-15T07:55:44.099Z,10.12
2023-04-15T07:58:11.027Z,10.15
2023-04-15T08:00:38.617Z,10.30
2023-04-15T08:03:06.105Z,10.12
2023-04-15T08:05:33.296Z,9.99
2023-04-15T08:08:00.329Z,9.96
2023-04-15T08:10:27.418Z,10.07
2023-04-15T08:12:55.094Z,10.17
2023-04-15T08:15:22.382Z,10.28
2023-04-15T08:17:49.297Z,10.43
2023-04-15T08:20:16.248Z,10.46
2023-04-15T08:22:43.167Z,10.44
2023-04-15T08:25:10.527Z,10.56
2023-04-15T08:27:45.791Z,10.23
2023-04-15T08:30:13.166Z,10.41
2023-04-15T08:32:40.255Z,10.37
2023-04-15T08:35:07.964Z,10.37
2023-04-15T08:37:34.974Z,10.31
2023-04-15T08:40:01.768Z,10.38
2023-04-15T08:42:35.288Z,10.20
2023-04-15T08:45:04.792Z,10.16
2023-04-15T08:47:32.212Z,10.21
2023-04-15T08:49:59.690Z,10.23
2023-04-15T08:52:27.112Z,10.24
2023-04-15T08:54:59.042Z,10.25
2023-04-15T08:57:30.163Z,10.33
2023-04-15T08:59:57.832Z,10.36
2023-04-15T09:02:28.787Z,10.29
2023-04-15T09:04:56.831Z,10.28
2023-04-15T09:07:23.681Z,10.37
2023-04-15T09:09:51.506Z,10.14
2023-04-15T09:12:18.399Z,10.12
2023-04-15T09:14:47.358Z,10.07
2023-04-15T09:17:19.185Z,9.99
2023-04-15T09:19:46.170Z,9.99
2023-04-15T09:22:13.870Z,9.95
2023-04-15T09:24:42.339Z,10.01
2023-04-15T09:27:09.406Z,9.89
2023-04-15T09:29:37.302Z,9.87
2023-04-15T09:32:16.508Z,9.92
2023-04-15T09:34:43.756Z,9.87
2023-04-15T09:37:11.366Z,9.75
2023-04-15T09:39:50.134Z,9.84
2023-04-15T09:42:24.059Z,9.85
2023-04-15T09:44:52.775Z,9.78
2023-04-15T09:47:30.225Z,9.88
2023-04-15T09:49:58.303Z,9.70
2023-04-15T09:52:25.256Z,9.91
2023-04-15T09:54:55.111Z,10.03
2023-04-15T09:57:22.172Z,10.14
2023-04-15T09:59:49.072Z,10.19
2023-04-15T10:02:16.609Z,10.06
2023-04-15T10:04:43.582Z,10.15
2023-04-15T10:07:12.726Z,10.14
2023-04-15T10:09:39.982Z,10.18
2023-04-15T10:12:07.436Z,10.37
2023-04-15T10:14:38.911Z,10.46
2023-04-15T10:17:06.150Z,10.45
2023-04-15T10:19:34.303Z,10.32
2023-04-15T10:22:01.328Z,10.33
2023-04-15T10:24:28.564Z,10.10
2023-04-15T10:26:55.705Z,10.04
2023-04-15T10:29:24.332Z,9.92
2023-04-15T10:31:51.816Z,10.02
2023-04-15T10:34:18.802Z,9.90
2023-04-15T10:36:47.132Z,9.88
2023-04-15T10:39:42.170Z,9.78
2023-04-15T10:42:14.089Z,9.72
2023-04-15T10:44:45.942Z,9.84
2023-04-15T10:47:13.797Z,10.13
2023-04-15T10:49:45.779Z,10.21
2023-04-15T10:52:12.963Z,10.40
2023-04-15T10:54:39.933Z,10.44
2023-04-15T10:57:09.700Z,10.46
2023-04-15T10:59:38.684Z,10.48
2023-04-15T11:02:07.514Z,10.46
2023-04-15T11:04:57.952Z,10.50
2023-04-15T11:07:54.837Z,10.59
2023-04-15T11:10:57.180Z,10.62
2023-04-15T11:13:25.839Z,10.63
2023-04-15T11:15:56.863Z,10.50
2023-04-15T11:18:30.669Z,10.43
2023-04-15T11:21:01.263Z,10.46
2023-04-15T11:23:31.549Z,10.32
2023-04-15T11:26:00.021Z,10.41
2023-04-15T11:28:28.486Z,10.43
2023-04-15T11:30:56.125Z,10.76
2023-04-15T11:33:24.213Z,10.84
2023-04-15T11:35:53.677Z,10.80
2023-04-15T11:38:20.529Z,10.97
2023-04-15T11:40:47.520Z,11.03
2023-04-15T11:43:16.750Z,11.09
2023-04-15T11:45:55.970Z,11.01
2023-04-15T11:48:25.617Z,11.03
2023-04-15T11:51:00.436Z,11.10
2023-04-15T11:53:47.880Z,11.18
2023-04-15T11:56:25.649Z,11.05
2023-04-15T11:58:57.067Z,10.98
2023-04-15T12:01:46.604Z,11.17
2023-04-15T12:04:15.431Z,11.16
2023-04-15T12:06:42.362Z,11.10
2023-04-15T12:09:17.331Z,10.99
2023-04-15T12:11:49.723Z,11.11
2023-04-15T12:14:35.234Z,10.99
2023-04-15T12:17:04.883Z,10.99
2023-04-15T12:19:40.228Z,10.93
2023-04-15T12:22:12.402Z,10.92
2023-04-15T12:24:39.799Z,10.97
2023-04-15T12:27:08.190Z,11.04
2023-04-15T12:29:36.947Z,11.32
2023-04-15T12:32:08.668Z,11.17
2023-04-15T12:34:43.032Z,11.17
2023-04-15T12:37:11.946Z,11.24
2023-04-15T12:39:41.272Z,11.21
2023-04-15T12:42:09.050Z,11.28
2023-04-15T12:44:37.277Z,11.18
2023-04-15T12:47:04.695Z,10.86
2023-04-15T12:49:32.919Z,11.02
2023-04-15T12:52:01.121Z,10.81
2023-04-15T12:54:29.360Z,10.80
2023-04-15T12:56:56.728Z,10.90
2023-04-15T12:59:26.700Z,10.79
2023-04-15T13:01:54.406Z,10.61
2023-04-15T13:04:22.328Z,10.59
2023-04-15T13:06:49.856Z,10.48
2023-04-15T13:09:16.943Z,10.57
2023-04-15T13:11:43.997Z,10.54
2023-04-15T13:14:14.073Z,10.45
2023-04-15T13:16:41.584Z,10.33
2023-04-15T13:19:08.656Z,10.29
2023-04-15T13:21:36.435Z,10.14
2023-04-15T13:24:04.526Z,10.19
2023-04-15T13:26:32.150Z,10.11
2023-04-15T13:28:59.537Z,10.18
2023-04-15T13:31:27.324Z,10.11
2023-04-15T13:33:54.524Z,10.12
2023-04-15T13:36:21.496Z,10.05
2023-04-15T13:38:51.012Z,10.05
2023-04-15T13:41:18.659Z,10.05
2023-04-15T13:43:45.701Z,10.00
2023-04-15T13:46:12.849Z,10.08
2023-04-15T13:48:39.881Z,10.09
2023-04-15T13:51:06.792Z,10.22
2023-04-15T13:53:39.145Z,10.15
2023-04-15T13:56:07.972Z,10.02
2023-04-15T13:58:34.937Z,9.96
2023-04-15T14:01:04.702Z,10.16
2023-04-15T14:03:33.358Z,10.16
2023-04-15T14:06:00.389Z,10.07
2023-04-15T14:08:27.323Z,10.12
2023-04-15T14:10:54.240Z,10.00
2023-04-15T14:13:21.104Z,9.98
2023-04-15T14:15:47.975Z,10.01
2023-04-15T14:18:14.971Z,9.91
2023-04-15T14:20:42.013Z,10.02
2023-04-15T14:23:08.861Z,9.98
2023-04-15T14:25:35.779Z,9.95
2023-04-15T14:28:03.559Z,9.94
2023-04-15T14:30:30.663Z,9.91
2023-04-15T14:32:57.680Z,9.97
2023-04-15T14:35:26.807Z,9.99
2023-04-15T14:37:54.568Z,9.94
2023-04-15T14:40:22.556Z,10.01
2023-04-15T14:42:49.577Z,9.89
2023-04-15T14:45:16.681Z,9.84
2023-04-15T14:47:44.049Z,9.80
2023-04-15T14:50:11.102Z,9.75
2023-04-15T14:52:41.045Z,9.71
2023-04-15T14:55:10.443Z,9.77
2023-04-15T14:57:38.284Z,9.89
2023-04-15T15:00:07.117Z,9.96
2023-04-15T15:02:39.125Z,9.82
2023-04-15T15:05:08.819Z,9.75
2023-04-15T15:07:37.383Z,9.71
2023-04-15T15:10:05.386Z,9.92
2023-04-15T15:12:33.016Z,9.81
2023-04-15T15:15:01.522Z,9.85
2023-04-15T15:17:28.692Z,9.80
2023-04-15T15:19:55.554Z,9.75
2023-04-15T15:22:22.368Z,9.79
2023-04-15T15:24:49.365Z,9.72
2023-04-15T15:27:16.241Z,9.65
2023-04-15T15:29:43.103Z,9.69
2023-04-15T15:32:09.925Z,9.65
2023-04-15T15:34:36.784Z,9.68
2023-04-15T15:37:03.595Z,9.60
2023-04-15T15:39:30.512Z,9.58
2023-04-15T15:41:57.439Z,9.64
2023-04-15T15:44:24.288Z,9.62
2023-04-15T15:46:51.299Z,9.65
2023-04-15T15:49:18.274Z,9.63
2023-04-15T15:51:46.010Z,9.59
2023-04-15T15:54:13.193Z,9.62
2023-04-15T15:56:40.174Z,9.52
2023-04-15T15:59:07.088Z,9.64
2023-04-15T16:01:34.127Z,9.58
2023-04-15T16:04:01.430Z,9.57
2023-04-15T16:06:28.839Z,9.62
2023-04-15T16:08:55.799Z,9.46
2023-04-15T16:11:23.430Z,9.58
2023-04-15T16:13:50.331Z,9.52
2023-04-15T16:16:17.211Z,9.60
2023-04-15T16:18:44.080Z,9.39
2023-04-15T16:21:10.935Z,9.37
2023-04-15T16:23:38.397Z,9.36
2023-04-15T16:26:05.499Z,9.33
2023-04-15T16:28:32.457Z,9.34
2023-04-15T16:30:59.993Z,9.35
2023-04-15T16:33:27.007Z,9.27
2023-04-15T16:35:53.866Z,9.29
2023-04-15T16:38:20.945Z,9.20
2023-04-15T16:40:47.861Z,9.21
2023-04-15T16:43:14.711Z,9.23
2023-04-15T16:45:41.704Z,9.22
2023-04-15T16:48:08.569Z,9.25
2023-04-15T16:50:37.213Z,9.20
2023-04-15T16:53:04.060Z,9.18
2023-04-15T16:55:57.264Z,9.29
2023-04-15T16:58:25.444Z,9.19
2023-04-15T17:00:52.593Z,9.14
2023-04-15T17:03:19.716Z,9.14
2023-04-15T17:05:46.569Z,9.01
2023-04-15T17:08:13.698Z,9.00
2023-04-15T17:10:40.546Z,8.88
2023-04-15T17:13:07.418Z,8.93
2023-04-15T17:15:34.652Z,8.94
2023-04-15T17:18:02.253Z,8.92
2023-04-15T17:20:30.135Z,8.87
2023-04-15T17:22:57.740Z,8.88
2023-04-15T17:25:24.628Z,8.88
2023-04-15T17:27:51.452Z,8.82
2023-04-15T17:30:19.268Z,8.86
2023-04-15T17:32:46.331Z,8.79
2023-04-15T17:35:13.483Z,8.89
2023-04-15T17:37:42.008Z,8.86
2023-04-15T17:40:11.570Z,8.83
2023-04-15T17:42:39.298Z,8.86
2023-04-15T17:45:08.792Z,8.76
2023-04-15T17:47:49.858Z,8.74
2023-04-15T17:50:18.807Z,8.80
2023-04-15T17:52:48.393Z,8.80
2023-04-15T17:55:16.325Z,8.78
2023-04-15T17:57:48.478Z,8.76
2023-04-15T18:00:19.079Z,8.78
2023-04-15T18:02:49.761Z,8.74
2023-04-15T18:05:22.581Z,8.79
2023-04-15T18:07:53.675Z,8.80
2023-04-15T18:10:22.282Z,8.70
2023-04-15T18:12:56.967Z,8.79
2023-04-15T18:15:26.581Z,8.80
2023-04-15T18:17:55.365Z,8.75
2023-04-15T18:20:22.285Z,8.66
2023-04-15T18:22:49.223Z,8.79
2023-04-15T18:25:16.040Z,8.84
2023-04-15T18:27:43.032Z,8.92
2023-04-15T18:30:11.170Z,8.93
2023-04-15T18:32:38.586Z,8.96
2023-04-15T18:35:06.080Z,8.98
2023-04-15T18:37:33.189Z,9.00
2023-04-15T18:40:00.064Z,9.01
2023-04-15T18:42:27.065Z,9.00
2023-04-15T18:44:54.606Z,9.04
2023-04-15T18:47:21.481Z,9.04
2023-04-15T18:49:48.475Z,9.02
2023-04-15T18:52:15.266Z,9.05
2023-04-15T18:54:42.166Z,9.02
2023-04-15T18:57:09.008Z,9.07
2023-04-15T18:59:36.316Z,9.02
2023-04-15T19:02:06.568Z,8.97
2023-04-15T19:04:33.824Z,8.95
2023-04-15T19:07:01.906Z,8.94
2023-04-15T19:09:29.411Z,8.91
2023-04-15T19:11:56.961Z,8.91
2023-04-15T19:14:23.979Z,8.90
2023-04-15T19:16:53.572Z,8.87
2023-04-15T19:19:24.672Z,8.87
2023-04-15T19:21:54.790Z,8.84
2023-04-15T19:24:24.455Z,8.71
2023-04-15T19:26:53.638Z,8.78
2023-04-15T19:29:24.578Z,8.75
2023-04-15T19:31:56.260Z,8.66
2023-04-15T19:34:29.648Z,8.62
2023-04-15T19:37:01.459Z,8.62
2023-04-15T19:39:35.764Z,8.61
2023-04-15T19:42:04.647Z,8.62
2023-04-15T19:44:33.662Z,8.59
2023-04-15T19:47:08.658Z,8.48
2023-04-15T19:49:42.478Z,8.43
2023-04-15T19:52:16.188Z,8.35
2023-04-15T19:54:47.112Z,8.41
2023-04-15T19:57:16.932Z,8.44
2023-04-15T19:59:46.415Z,8.46
2023-04-15T20:02:17.903Z,8.46
2023-04-15T20:04:47.690Z,8.44
2023-04-15T20:07:15.125Z,8.46
2023-04-15T20:09:43.929Z,8.37
2023-04-15T20:12:50.054Z,8.38
2023-04-15T20:14:57.696Z,8.31
2023-04-15T20:17:24.626Z,8.29
2023-04-15T20:19:51.641Z,8.33
2023-04-15T20:22:18.477Z,8.30
2023-04-15T20:24:45.557Z,8.18
2023-04-15T20:27:12.472Z,8.16
2023-04-15T20:29:39.431Z,8.16
2023-04-15T20:32:06.915Z,8.10
2023-04-15T20:34:34.117Z,8.10
2023-04-15T20:37:00.944Z,8.07
2023-04-15T20:39:27.746Z,8.03
2023-04-15T20:41:54.644Z,8.04
2023-04-15T20:44:21.635Z,8.01
2023-04-15T20:46:48.618Z,8.00
2023-04-15T20:49:15.471Z,7.97
2023-04-15T20:51:42.310Z,7.98
2023-04-15T20:54:09.140Z,7.97
2023-04-15T20:56:35.972Z,7.94
2023-04-15T20:59:03.099Z,7.99
2023-04-15T21:01:30.168Z,7.90
2023-04-15T21:03:58.534Z,7.93
2023-04-15T21:06:27.203Z,7.93
2023-04-15T21:08:54.041Z,7.86
2023-04-15T21:11:38.786Z,7.83
2023-04-15T21:14:11.014Z,7.76
2023-04-15T21:16:37.896Z,7.76
2023-04-15T21:19:05.171Z,7.77
2023-04-15T21:21:32.348Z,7.79
2023-04-15T21:23:59.525Z,7.76
2023-04-15T21:26:26.482Z,7.72
2023-04-15T21:28:53.356Z,7.76
2023-04-15T21:31:20.878Z,7.78
2023-04-15T21:33:47.780Z,7.75
2023-04-15T21:36:14.825Z,7.73
2023-04-15T21:38:41.620Z,7.72
2023-04-15T21:41:09.841Z,7.69
2023-04-15T21:43:37.267Z,7.74
2023-04-15T21:46:21.226Z,7.76
2023-04-15T21:48:51.612Z,7.77
2023-04-15T21:51:18.412Z,7.78
2023-04-15T21:53:45.212Z,7.74
2023-04-15T21:56:12.099Z,7.74
2023-04-15T21:58:38.928Z,7.71
2023-04-15T22:01:06.093Z,7.68
2023-04-15T22:03:34.839Z,7.72
2023-04-15T22:06:03.188Z,7.75
2023-04-15T22:08:41.258Z,7.58
2023-04-15T22:11:28.769Z,7.59
2023-04-15T22:13:57.601Z,7.53
2023-04-15T22:16:25.877Z,7.47
2023-04-15T22:18:53.042Z,7.48
2023-04-15T22:21:19.890Z,7.58
2023-04-15T22:23:48.480Z,7.55
2023-04-15T22:26:15.695Z,7.53
2023-04-15T22:28:42.648Z,7.49
2023-04-15T22:31:09.593Z,7.61
2023-04-15T22:33:36.599Z,7.54
2023-04-15T22:36:03.569Z,7.54
2023-04-15T22:38:30.579Z,7.56
2023-04-15T22:40:58.520Z,7.53
2023-04-15T22:43:26.160Z,7.48
2023-04-15T22:45:55.028Z,7.40
2023-04-15T22:48:22.322Z,7.42
2023-04-15T22:50:50.147Z,7.36
2023-04-15T22:53:18.278Z,7.38
2023-04-15T22:55:46.849Z,7.44
2023-04-15T22:58:14.186Z,7.44
2023-04-15T23:00:41.171Z,7.47
2023-04-15T23:03:08.300Z,7.44
2023-04-15T23:05:35.509Z,7.36
2023-04-15T23:08:02.540Z,7.36
2023-04-15T23:10:30.071Z,7.31
2023-04-15T23:12:57.129Z,7.30
2023-04-15T23:15:24.016Z,7.29
2023-04-15T23:17:51.127Z,7.27
2023-04-15T23:20:18.114Z,7.32
2023-04-15T23:22:45.429Z,7.27
2023-04-15T23:25:12.331Z,7.20
2023-04-15T23:27:39.273Z,7.18
2023-04-15T23:30:07.082Z,7.01
2023-04-15T23:32:33.963Z,6.99
2023-04-15T23:35:01.068Z,6.94
2023-04-15T23:37:30.842Z,6.91
2023-04-15T23:39:57.815Z,6.93
2023-04-15T23:42:24.770Z,6.92
2023-04-15T23:44:51.740Z,6.92
2023-04-15T23:47:18.585Z,6.91
2023-04-15T23:49:45.560Z,6.80
2023-04-15T23:52:12.462Z,6.86
2023-04-15T23:54:40.047Z,6.85
2023-04-15T23:57:06.831Z,6.90
2023-04-15T23:59:33.808Z,6.81
